KCLL - College Station/East, TX, US

Issued at 2045 UTC 18 Oct 2019
Updated at 2318 UTC 18 Oct 2019
Potential Impact None Slight Moderate High
Time2253Z 19/00Z 19/01Z 19/02Z 19/03Z 19/04Z 19/05Z 19/06Z 19/07Z 19/08Z 19/09Z 19/10Z 19/11Z 19/12Z>>
Type OBS PRVL PRVL PRVL PRVL PRVL PRVL PRVL PRVL PRVL PRVL PRVL PRVL PRVL
VIS 10 >6 >6 >6 >6 >6 >6 >6 >6 >6 >6 5 5 5
CIG -- -- -- -- -- -- -- -- -- -- -- 5 5 5
Cover CLR SKC SKC SKC SKC SKC SKC SKC SKC SKC SKC BKN BKN BKN
FltCat VFR VFR VFR VFR VFR VFR VFR VFR VFR VFR VFR IFR IFR IFR
WX -- -- -- -- -- -- -- -- -- -- -- BR BR BR
WDir 140 120 120 120 120 120 120 120 120 120 120 170 170 170
WSpd 7 5 5 5 5 5 5 5 5 5 5 4 4 4
WGst -- -- -- -- -- -- -- -- -- -- -- -- -- --
Raw TAF
KCLL 182045Z 1821/1918 12005KT P6SM SKC
  FM191000 17004KT 5SM BR BKN005
  FM191400 20008KT P6SM SCT025


Raw METAR
KCLL 182253Z 14007KT 10SM CLR 27/07 A2973 RMK AO2 SLP065 T02720067
KCLL 182153Z VRB03KT 10SM CLR 28/08 A2974 RMK AO2 SLP067 T02780078
KCLL 182053Z 12008KT 10SM CLR 28/06 A2975 RMK AO2 SLP070 T02780061 56035

METAR Board
Radar Display
Forecast Discussion
For situational awareness. Not to be used for flight planning purposes.